createdAt,value
2023-05-08T00:00:00.412Z,16.92
2023-05-08T00:02:03.419Z,17.83
2023-05-08T00:04:06.511Z,16.63
2023-05-08T00:06:09.803Z,17.25
2023-05-08T00:08:13.961Z,18.77
2023-05-08T00:10:16.718Z,17.75
2023-05-08T00:12:19.544Z,16.70
2023-05-08T00:14:22.248Z,15.95
2023-05-08T00:16:25.041Z,16.35
2023-05-08T00:18:27.885Z,17.52
2023-05-08T00:20:30.618Z,17.90
2023-05-08T00:22:33.323Z,17.48
2023-05-08T00:24:37.433Z,18.55
2023-05-08T00:26:41.964Z,16.65
2023-05-08T00:28:44.728Z,17.17
2023-05-08T00:30:47.510Z,17.60
2023-05-08T00:32:50.228Z,17.00
2023-05-08T00:34:53.027Z,16.35
2023-05-08T00:36:57.510Z,16.00
2023-05-08T00:39:00.302Z,16.73
2023-05-08T00:41:04.818Z,15.63
2023-05-08T00:43:07.591Z,15.27
2023-05-08T00:45:11.186Z,15.18
2023-05-08T00:47:13.953Z,15.15
2023-05-08T00:49:17.339Z,15.25
2023-05-08T00:51:20.414Z,15.32
2023-05-08T00:53:24.082Z,15.52
2023-05-08T00:55:26.894Z,14.95
2023-05-08T00:57:35.677Z,16.13
2023-05-08T00:59:41.535Z,15.02
2023-05-08T01:01:45.078Z,16.17
2023-05-08T01:03:48.109Z,15.48
2023-05-08T01:05:51.036Z,15.70
2023-05-08T01:07:53.730Z,15.73
2023-05-08T01:09:56.460Z,15.55
2023-05-08T01:12:17.013Z,15.00
2023-05-08T01:14:26.483Z,14.98
2023-05-08T01:16:41.249Z,15.27
2023-05-08T01:18:48.829Z,14.10
2023-05-08T01:21:01.613Z,15.60
2023-05-08T01:23:33.749Z,15.32
2023-05-08T01:25:56.890Z,15.75
2023-05-08T01:28:22.471Z,17.42
2023-05-08T01:31:04.120Z,16.25
2023-05-08T01:33:15.409Z,17.55
2023-05-08T01:35:25.072Z,16.92
2023-05-08T01:37:33.611Z,16.13
2023-05-08T01:39:48.050Z,15.60
2023-05-08T01:41:58.422Z,16.00
2023-05-08T01:44:12.486Z,22.33
2023-05-08T01:46:20.598Z,19.50
2023-05-08T01:48:29.351Z,18.60
2023-05-08T01:50:35.619Z,18.92
2023-05-08T01:52:44.520Z,19.88
2023-05-08T01:54:52.678Z,19.33
2023-05-08T01:56:58.808Z,20.58
2023-05-08T01:59:04.954Z,19.38
2023-05-08T02:01:09.840Z,18.77
2023-05-08T02:03:14.934Z,17.75
2023-05-08T02:05:20.549Z,17.77
2023-05-08T02:07:25.038Z,18.33
2023-05-08T02:09:29.744Z,17.42
2023-05-08T02:11:34.027Z,17.45
2023-05-08T02:13:38.361Z,16.75
2023-05-08T02:15:43.083Z,15.90
2023-05-08T02:17:50.056Z,16.42
2023-05-08T02:19:56.064Z,16.20
2023-05-08T02:22:01.796Z,17.83
2023-05-08T02:24:05.798Z,17.30
2023-05-08T02:26:10.816Z,18.50
2023-05-08T02:28:13.673Z,18.80
2023-05-08T02:30:18.749Z,17.65
2023-05-08T02:32:23.283Z,16.05
2023-05-08T02:34:27.496Z,16.38
2023-05-08T02:36:31.862Z,14.95
2023-05-08T02:38:39.697Z,16.30
2023-05-08T02:40:47.158Z,15.77
2023-05-08T02:42:50.702Z,15.02
2023-05-08T02:44:53.435Z,16.70
2023-05-08T02:47:00.081Z,15.20
2023-05-08T02:49:08.207Z,15.43
2023-05-08T02:51:19.522Z,16.90
2023-05-08T02:53:32.121Z,15.23
2023-05-08T02:55:43.684Z,15.40
2023-05-08T02:57:54.694Z,16.65
2023-05-08T03:00:01.904Z,16.08
2023-05-08T03:02:11.604Z,16.55
2023-05-08T03:04:23.680Z,16.55
2023-05-08T03:06:28.469Z,16.98
2023-05-08T03:08:35.238Z,17.25
2023-05-08T03:10:41.350Z,17.77
2023-05-08T03:12:47.547Z,18.17
2023-05-08T03:14:56.250Z,19.45
2023-05-08T03:17:01.752Z,20.30
2023-05-08T03:19:09.474Z,19.02
2023-05-08T03:21:14.103Z,17.90
2023-05-08T03:23:19.453Z,17.92
2023-05-08T03:25:22.903Z,18.42
2023-05-08T03:27:29.791Z,18.63
2023-05-08T03:29:34.452Z,20.35
2023-05-08T03:31:38.229Z,19.20
2023-05-08T03:33:44.276Z,18.42
2023-05-08T03:35:48.110Z,18.40
2023-05-08T03:37:51.437Z,17.60
2023-05-08T03:39:54.387Z,19.20
2023-05-08T03:41:58.068Z,18.52
2023-05-08T03:44:03.758Z,16.55
2023-05-08T03:46:07.106Z,14.93
2023-05-08T03:48:10.940Z,15.52
2023-05-08T03:50:14.610Z,15.25
2023-05-08T03:52:17.578Z,14.73
2023-05-08T03:54:20.268Z,14.85
2023-05-08T03:56:25.297Z,14.18
2023-05-08T03:58:33.972Z,15.00
2023-05-08T04:00:52.873Z,14.90
2023-05-08T04:03:04.105Z,14.50
2023-05-08T04:05:18.742Z,14.75
2023-05-08T04:07:28.747Z,13.63
2023-05-08T04:09:38.387Z,14.95
2023-05-08T04:11:49.009Z,14.50
2023-05-08T04:13:58.599Z,14.27
2023-05-08T04:16:13.552Z,15.13
2023-05-08T04:18:19.789Z,15.38
2023-05-08T04:20:25.514Z,14.40
2023-05-08T04:22:30.550Z,15.43
2023-05-08T04:24:38.243Z,15.73
2023-05-08T04:26:42.234Z,15.52
2023-05-08T04:28:46.681Z,15.45
2023-05-08T04:30:50.585Z,15.75
2023-05-08T04:32:55.609Z,16.42
2023-05-08T04:35:00.170Z,16.42
2023-05-08T04:37:03.637Z,15.95
2023-05-08T04:39:06.494Z,15.10
2023-05-08T04:41:09.911Z,15.90
2023-05-08T04:43:12.888Z,15.48
2023-05-08T04:45:15.979Z,15.68
2023-05-08T04:47:19.031Z,14.63
2023-05-08T04:49:23.122Z,14.82
2023-05-08T04:51:27.996Z,14.70
2023-05-08T04:53:33.634Z,15.15
2023-05-08T04:55:36.328Z,14.02
2023-05-08T04:57:39.256Z,13.73
2023-05-08T04:59:42.033Z,13.65
2023-05-08T05:01:46.450Z,15.68
2023-05-08T05:03:49.265Z,14.95
2023-05-08T05:05:59.996Z,14.60
2023-05-08T05:08:04.149Z,14.25
2023-05-08T05:10:07.470Z,14.18
2023-05-08T05:12:10.216Z,14.95
2023-05-08T05:14:13.000Z,14.15
2023-05-08T05:16:15.715Z,13.40
2023-05-08T05:18:18.772Z,13.30
2023-05-08T05:20:21.711Z,13.25
2023-05-08T05:22:25.910Z,12.30
2023-05-08T05:24:28.660Z,14.02
2023-05-08T05:26:31.408Z,12.18
2023-05-08T05:28:34.156Z,13.65
2023-05-08T05:30:37.061Z,13.40
2023-05-08T05:32:39.854Z,11.65
2023-05-08T05:34:42.847Z,12.20
2023-05-08T05:36:45.663Z,12.82
2023-05-08T05:38:49.760Z,12.85
2023-05-08T05:40:52.687Z,12.07
2023-05-08T05:42:55.394Z,11.82
2023-05-08T05:44:59.095Z,12.15
2023-05-08T05:47:01.833Z,12.57
2023-05-08T05:49:04.584Z,12.00
2023-05-08T05:51:07.387Z,11.55
2023-05-08T05:53:10.579Z,11.55
2023-05-08T05:55:15.016Z,13.25
2023-05-08T05:57:17.986Z,12.50
2023-05-08T05:59:20.745Z,12.43
2023-05-08T06:01:24.638Z,11.52
2023-05-08T06:03:27.518Z,12.38
2023-05-08T06:05:30.257Z,13.00
2023-05-08T06:07:33.492Z,12.32
2023-05-08T06:09:36.510Z,12.63
2023-05-08T06:11:40.674Z,12.77
2023-05-08T06:13:43.858Z,12.32
2023-05-08T06:15:46.814Z,13.25
2023-05-08T06:17:49.577Z,13.57
2023-05-08T06:19:56.484Z,11.85
2023-05-08T06:21:59.197Z,11.82
2023-05-08T06:24:01.962Z,12.18
2023-05-08T06:26:05.071Z,11.27
2023-05-08T06:28:09.309Z,10.38
2023-05-08T06:30:13.125Z,9.98
2023-05-08T06:32:15.888Z,8.40
2023-05-08T06:34:18.668Z,8.60
2023-05-08T06:36:21.495Z,8.95
2023-05-08T06:38:24.353Z,9.02
2023-05-08T06:40:27.114Z,9.43
2023-05-08T06:42:29.907Z,9.23
2023-05-08T06:44:34.148Z,9.23
2023-05-08T06:46:36.943Z,8.82
2023-05-08T06:48:39.819Z,7.93
2023-05-08T06:50:43.282Z,8.07
2023-05-08T06:52:46.091Z,8.13
2023-05-08T06:54:48.869Z,7.45
2023-05-08T06:56:53.242Z,8.77
2023-05-08T06:59:04.977Z,8.00
2023-05-08T07:01:12.384Z,8.98
2023-05-08T07:03:15.592Z,9.02
2023-05-08T07:05:19.961Z,8.68
2023-05-08T07:07:23.017Z,7.90
2023-05-08T07:09:25.960Z,8.70
2023-05-08T07:11:28.721Z,8.40
2023-05-08T07:13:31.659Z,9.43
2023-05-08T07:15:34.413Z,8.20
2023-05-08T07:17:38.844Z,8.70
2023-05-08T07:19:41.622Z,8.98
2023-05-08T07:21:46.228Z,9.13
2023-05-08T07:23:51.658Z,8.15
2023-05-08T07:25:54.491Z,8.23
2023-05-08T07:27:58.184Z,8.30
2023-05-08T07:30:04.438Z,7.65
2023-05-08T07:32:08.615Z,7.50
2023-05-08T07:34:12.760Z,8.05
2023-05-08T07:36:15.585Z,7.57
2023-05-08T07:38:18.279Z,6.57
2023-05-08T07:40:21.085Z,5.95
2023-05-08T07:42:23.975Z,6.63
2023-05-08T07:44:26.946Z,6.88
2023-05-08T07:46:29.901Z,6.55
2023-05-08T07:48:32.696Z,6.97
2023-05-08T07:50:37.193Z,6.75
2023-05-08T07:52:39.996Z,7.20
2023-05-08T07:54:43.955Z,6.63
2023-05-08T07:56:46.961Z,6.75
2023-05-08T07:58:49.907Z,7.13
2023-05-08T08:00:52.654Z,8.00
2023-05-08T08:02:55.487Z,7.38
2023-05-08T08:04:58.346Z,6.85
2023-05-08T08:07:02.481Z,7.75
2023-05-08T08:09:05.229Z,7.03
2023-05-08T08:11:08.144Z,8.07
2023-05-08T08:13:10.941Z,7.50
2023-05-08T08:15:13.832Z,6.90
2023-05-08T08:17:16.715Z,7.13
2023-05-08T08:19:19.533Z,7.65
2023-05-08T08:21:22.371Z,8.32
2023-05-08T08:23:26.521Z,8.32
2023-05-08T08:25:29.331Z,7.43
2023-05-08T08:27:32.278Z,7.93
2023-05-08T08:29:35.040Z,8.00
2023-05-08T08:31:37.912Z,8.05
2023-05-08T08:33:40.794Z,7.50
2023-05-08T08:35:43.594Z,7.70
2023-05-08T08:37:46.529Z,7.30
2023-05-08T08:39:50.709Z,7.60
2023-05-08T08:41:53.404Z,7.15
2023-05-08T08:43:56.331Z,7.32
2023-05-08T08:46:00.859Z,8.23
2023-05-08T08:48:04.633Z,7.70
2023-05-08T08:50:11.960Z,7.15
2023-05-08T08:52:23.693Z,7.82
2023-05-08T08:54:30.311Z,7.85
2023-05-08T08:58:43.431Z,7.30
2023-05-08T09:00:47.566Z,7.82
2023-05-08T09:02:50.601Z,7.70
2023-05-08T09:04:53.463Z,7.60
2023-05-08T09:06:58.129Z,8.10
2023-05-08T09:09:02.179Z,7.93
2023-05-08T09:11:05.176Z,7.50
2023-05-08T09:13:09.350Z,8.25
2023-05-08T09:15:12.831Z,7.78
2023-05-08T09:17:15.768Z,7.90
2023-05-08T09:19:19.120Z,8.40
2023-05-08T09:21:23.469Z,7.20
2023-05-08T09:23:26.382Z,8.75
2023-05-08T09:25:42.396Z,8.60
2023-05-08T09:27:45.149Z,7.30
2023-05-08T09:30:00.062Z,8.63
2023-05-08T09:32:02.863Z,7.70
2023-05-08T09:34:06.101Z,8.18
2023-05-08T09:36:26.767Z,7.75
2023-05-08T09:38:37.341Z,7.55
2023-05-08T09:40:40.081Z,7.88
2023-05-08T09:42:42.896Z,7.18
2023-05-08T09:44:47.587Z,7.97
2023-05-08T09:46:51.767Z,7.10
2023-05-08T09:48:55.809Z,7.47
2023-05-08T09:51:07.211Z,7.40
2023-05-08T09:53:10.175Z,7.82
2023-05-08T09:55:12.894Z,7.10
2023-05-08T09:57:17.048Z,7.25
2023-05-08T09:59:27.596Z,7.53
2023-05-08T10:01:31.983Z,7.45
2023-05-08T10:03:49.249Z,7.00
2023-05-08T10:05:52.543Z,7.30
2023-05-08T10:07:55.349Z,6.65
2023-05-08T10:10:02.950Z,6.45
2023-05-08T10:12:07.144Z,6.90
2023-05-08T10:14:10.299Z,5.90
2023-05-08T10:16:16.655Z,5.78
2023-05-08T10:20:30.306Z,5.43
2023-05-08T10:22:37.221Z,6.57
2023-05-08T10:24:42.579Z,5.80
2023-05-08T10:27:06.213Z,6.60
2023-05-08T10:29:18.379Z,6.80
2023-05-08T10:31:23.122Z,6.50
2023-05-08T10:33:31.222Z,7.13
2023-05-08T10:35:35.622Z,7.10
2023-05-08T10:37:42.355Z,6.32
2023-05-08T10:39:46.070Z,7.30
2023-05-08T10:41:50.067Z,6.57
2023-05-08T10:43:53.983Z,6.22
2023-05-08T10:45:58.514Z,6.38
2023-05-08T10:48:09.903Z,5.90
2023-05-08T10:50:23.402Z,6.28
2023-05-08T10:52:35.118Z,6.40
2023-05-08T10:54:49.282Z,5.95
2023-05-08T10:56:51.931Z,5.45
2023-05-08T10:58:57.587Z,4.85
2023-05-08T11:01:14.477Z,4.07
2023-05-08T11:03:30.459Z,4.63
2023-05-08T11:05:46.644Z,4.63
2023-05-08T11:07:57.549Z,4.75
2023-05-08T11:10:14.077Z,5.32
2023-05-08T11:12:27.028Z,5.03
2023-05-08T11:14:30.912Z,4.82
2023-05-08T11:17:05.915Z,4.90
2023-05-08T11:19:17.870Z,5.25
2023-05-08T11:21:22.535Z,5.10
2023-05-08T11:23:28.142Z,5.65
2023-05-08T11:25:43.574Z,5.32
2023-05-08T11:28:13.934Z,5.18
2023-05-08T11:30:25.668Z,6.13
2023-05-08T11:32:58.378Z,5.75
2023-05-08T11:35:01.226Z,6.43
2023-05-08T11:37:04.000Z,6.40
2023-05-08T11:39:12.645Z,7.00
2023-05-08T11:41:23.240Z,6.72
2023-05-08T11:43:28.091Z,7.53
2023-05-08T11:45:32.131Z,6.35
2023-05-08T11:47:39.747Z,6.70
2023-05-08T11:49:42.943Z,6.97
2023-05-08T11:51:47.730Z,6.93
2023-05-08T11:53:50.476Z,8.63
2023-05-08T11:55:55.482Z,8.27
2023-05-08T11:57:58.367Z,8.60
2023-05-08T12:00:06.318Z,8.57
2023-05-08T12:02:09.861Z,8.82
2023-05-08T12:04:14.213Z,9.07
2023-05-08T12:06:20.027Z,8.98
2023-05-08T12:08:22.873Z,7.93
2023-05-08T12:10:26.032Z,8.60
2023-05-08T12:12:38.965Z,9.48
2023-05-08T12:14:41.772Z,9.55
2023-05-08T12:16:44.719Z,9.13
2023-05-08T12:18:50.198Z,9.85
2023-05-08T12:20:53.620Z,10.20
2023-05-08T12:22:56.429Z,9.48
2023-05-08T12:24:59.208Z,10.15
2023-05-08T12:27:01.999Z,8.90
2023-05-08T12:29:08.608Z,9.18
2023-05-08T12:31:12.320Z,8.32
2023-05-08T12:33:16.014Z,9.50
2023-05-08T12:35:19.136Z,8.98
2023-05-08T12:37:25.623Z,8.93
2023-05-08T12:39:28.357Z,8.55
2023-05-08T12:41:31.099Z,9.52
2023-05-08T12:43:38.538Z,9.30
2023-05-08T12:45:44.039Z,8.30
2023-05-08T12:47:47.994Z,9.15
2023-05-08T12:49:50.708Z,8.32
2023-05-08T12:51:53.929Z,8.07
2023-05-08T12:53:56.614Z,8.77
2023-05-08T12:56:02.045Z,9.18
2023-05-08T12:58:06.908Z,8.77
2023-05-08T13:00:10.838Z,8.98
2023-05-08T13:02:17.276Z,8.43
2023-05-08T13:04:20.297Z,8.88
2023-05-08T13:06:23.567Z,9.30
2023-05-08T13:08:32.320Z,8.65
2023-05-08T13:10:48.750Z,8.90
2023-05-08T13:12:52.327Z,8.00
2023-05-08T13:14:55.144Z,7.70
2023-05-08T13:16:57.999Z,8.75
2023-05-08T13:19:02.189Z,8.73
2023-05-08T13:21:05.129Z,9.10
2023-05-08T13:23:08.128Z,8.82
2023-05-08T13:25:10.954Z,9.40
2023-05-08T13:27:14.723Z,8.23
2023-05-08T13:29:17.696Z,8.88
2023-05-08T13:31:20.706Z,8.85
2023-05-08T13:33:23.615Z,8.57
2023-05-08T13:35:28.506Z,10.40
2023-05-08T13:37:31.391Z,9.02
2023-05-08T13:39:37.213Z,8.77
2023-05-08T13:41:40.039Z,9.20
2023-05-08T13:43:42.786Z,9.25
2023-05-08T13:45:45.581Z,9.40
2023-05-08T13:47:49.890Z,9.00
2023-05-08T13:49:52.618Z,10.48
2023-05-08T13:51:57.415Z,10.40
2023-05-08T13:54:00.222Z,9.82
2023-05-08T13:56:03.195Z,9.68
2023-05-08T13:58:06.009Z,9.50
2023-05-08T14:00:10.247Z,9.60
2023-05-08T14:02:13.290Z,8.70
2023-05-08T14:04:16.102Z,9.40
2023-05-08T14:06:20.478Z,9.05
2023-05-08T14:08:24.654Z,9.57
2023-05-08T14:10:27.324Z,9.40
2023-05-08T14:12:30.304Z,8.90
2023-05-08T14:14:34.494Z,10.40
2023-05-08T14:16:37.614Z,9.45
2023-05-08T14:18:40.352Z,10.38
2023-05-08T14:20:45.379Z,10.25
2023-05-08T14:24:56.670Z,9.60
2023-05-08T14:27:01.957Z,9.52
2023-05-08T14:29:04.946Z,10.75
2023-05-08T14:31:07.785Z,10.25
2023-05-08T14:33:10.644Z,9.85
2023-05-08T14:35:14.336Z,9.77
2023-05-08T14:37:17.746Z,9.63
2023-05-08T14:39:20.597Z,9.65
2023-05-08T14:41:28.759Z,11.02
2023-05-08T14:43:31.580Z,9.27
2023-05-08T14:45:34.386Z,9.13
2023-05-08T14:47:37.172Z,10.65
2023-05-08T14:49:40.005Z,9.25
2023-05-08T14:51:42.837Z,10.68
2023-05-08T14:53:45.719Z,10.18
2023-05-08T14:55:48.631Z,9.68
2023-05-08T14:57:52.875Z,9.55
2023-05-08T14:59:56.784Z,9.88
2023-05-08T15:01:59.597Z,9.68
2023-05-08T15:04:02.483Z,9.63
2023-05-08T15:06:05.914Z,9.10
2023-05-08T15:08:09.691Z,9.10
2023-05-08T15:10:12.618Z,9.35
2023-05-08T15:12:15.318Z,9.10
2023-05-08T15:14:19.401Z,9.38
2023-05-08T15:16:22.157Z,7.78
2023-05-08T15:18:28.383Z,8.93
2023-05-08T15:20:31.163Z,8.07
2023-05-08T15:22:33.887Z,8.40
2023-05-08T15:24:36.658Z,8.88
2023-05-08T15:26:39.350Z,8.50
2023-05-08T15:28:42.048Z,8.32
2023-05-08T15:30:47.861Z,8.70
2023-05-08T15:32:50.910Z,7.82
2023-05-08T15:34:54.230Z,8.68
2023-05-08T15:36:56.978Z,9.48
2023-05-08T15:38:59.647Z,8.30
2023-05-08T15:41:02.367Z,7.63
2023-05-08T15:43:05.200Z,7.97
2023-05-08T15:45:09.009Z,8.85
2023-05-08T15:47:13.095Z,8.32
2023-05-08T15:49:15.826Z,9.30
2023-05-08T15:51:18.814Z,8.35
2023-05-08T15:53:21.659Z,8.60
2023-05-08T15:55:24.409Z,8.25
2023-05-08T15:57:27.871Z,9.00
2023-05-08T15:59:30.609Z,9.10
2023-05-08T16:01:33.277Z,8.88
2023-05-08T16:03:37.621Z,8.15
2023-05-08T16:05:40.546Z,8.75
2023-05-08T16:07:43.775Z,8.50
2023-05-08T16:09:46.638Z,7.82
2023-05-08T16:11:49.423Z,7.80
2023-05-08T16:13:52.227Z,8.07
2023-05-08T16:15:55.123Z,7.68
2023-05-08T16:17:57.863Z,7.65
2023-05-08T16:20:03.826Z,7.63
2023-05-08T16:22:06.911Z,7.53
2023-05-08T16:24:09.699Z,8.07
2023-05-08T16:26:14.040Z,7.85
2023-05-08T16:28:16.986Z,6.63
2023-05-08T16:30:20.012Z,7.65
2023-05-08T16:32:22.849Z,6.88
2023-05-08T16:34:25.716Z,6.70
2023-05-08T16:36:30.164Z,7.03
2023-05-08T16:38:33.149Z,7.95
2023-05-08T16:40:35.923Z,7.47
2023-05-08T16:42:39.152Z,7.80
2023-05-08T16:44:41.838Z,7.30
2023-05-08T16:46:44.615Z,7.93
2023-05-08T16:48:48.750Z,7.95
2023-05-08T16:50:51.529Z,7.93
2023-05-08T16:52:57.031Z,8.32
2023-05-08T16:54:59.734Z,7.70
2023-05-08T16:57:02.779Z,7.78
2023-05-08T16:59:06.977Z,7.50
2023-05-08T17:01:10.073Z,8.55
2023-05-08T17:03:13.005Z,8.20
2023-05-08T17:05:15.867Z,8.15
2023-05-08T17:07:19.129Z,7.80
2023-05-08T17:09:25.226Z,8.10
2023-05-08T17:11:27.924Z,8.85
2023-05-08T17:13:30.767Z,8.75
2023-05-08T17:15:33.514Z,8.48
2023-05-08T17:17:36.285Z,8.52
2023-05-08T17:19:38.993Z,8.15
2023-05-08T17:21:41.778Z,8.35
2023-05-08T17:23:45.633Z,8.25
2023-05-08T17:25:57.163Z,8.32
2023-05-08T17:28:01.384Z,8.52
2023-05-08T17:30:04.769Z,8.95
2023-05-08T17:32:07.732Z,8.13
2023-05-08T17:34:10.601Z,8.13
2023-05-08T17:36:13.356Z,8.40
2023-05-08T17:38:16.248Z,7.57
2023-05-08T17:40:19.032Z,9.00
2023-05-08T17:42:23.184Z,8.63
2023-05-08T17:44:25.963Z,8.88
2023-05-08T17:46:28.693Z,8.35
2023-05-08T17:48:31.482Z,8.77
2023-05-08T17:50:34.920Z,8.02
2023-05-08T17:52:37.716Z,8.45
2023-05-08T17:54:40.612Z,8.93
2023-05-08T17:56:43.434Z,7.97
2023-05-08T17:58:47.814Z,8.23
2023-05-08T18:00:50.575Z,7.65
2023-05-08T18:02:53.468Z,7.93
2023-05-08T18:04:56.296Z,7.68
2023-05-08T18:07:01.314Z,8.43
2023-05-08T18:09:04.115Z,7.78
2023-05-08T18:11:06.874Z,8.48
2023-05-08T18:13:09.805Z,8.18
2023-05-08T18:15:14.389Z,8.40
2023-05-08T18:17:19.299Z,8.65
2023-05-08T18:19:22.100Z,8.43
2023-05-08T18:21:24.837Z,8.23
2023-05-08T18:23:27.567Z,8.95
2023-05-08T18:25:30.374Z,8.43
2023-05-08T18:27:34.293Z,8.95
2023-05-08T18:29:37.043Z,9.20
2023-05-08T18:31:41.228Z,9.82
2023-05-08T18:33:44.007Z,8.30
2023-05-08T18:35:46.884Z,9.25
2023-05-08T18:37:49.606Z,8.32
2023-05-08T18:39:52.531Z,9.38
2023-05-08T18:41:55.303Z,8.82
2023-05-08T18:44:01.340Z,9.75
2023-05-08T18:46:09.541Z,9.27
2023-05-08T18:48:13.693Z,9.65
2023-05-08T18:50:16.642Z,9.23
2023-05-08T18:52:19.442Z,10.77
2023-05-08T18:54:23.789Z,9.80
2023-05-08T18:56:26.980Z,9.38
2023-05-08T18:58:29.894Z,10.15
2023-05-08T19:00:32.858Z,9.50
2023-05-08T19:02:35.871Z,10.60
2023-05-08T19:04:41.033Z,9.27
2023-05-08T19:06:43.912Z,10.30
2023-05-08T19:08:47.336Z,9.93
2023-05-08T19:10:50.209Z,10.48
2023-05-08T19:12:52.974Z,9.63
2023-05-08T19:14:55.948Z,10.05
2023-05-08T19:16:58.773Z,9.93
2023-05-08T19:19:01.483Z,10.70
2023-05-08T19:21:06.498Z,10.55
2023-05-08T19:23:09.280Z,11.40
2023-05-08T19:25:12.650Z,10.50
2023-05-08T19:27:15.415Z,11.43
2023-05-08T19:29:18.135Z,10.50
2023-05-08T19:31:20.947Z,11.52
2023-05-08T19:33:23.730Z,9.98
2023-05-08T19:35:26.509Z,10.85
2023-05-08T19:37:31.128Z,11.25
2023-05-08T19:39:33.872Z,10.70
2023-05-08T19:41:36.672Z,10.18
2023-05-08T19:43:39.448Z,10.18
2023-05-08T19:45:42.360Z,10.80
2023-05-08T19:47:48.195Z,10.02
2023-05-08T19:49:51.222Z,10.30
2023-05-08T19:51:54.044Z,10.23
2023-05-08T19:53:58.122Z,10.98
2023-05-08T19:56:00.842Z,10.48
2023-05-08T19:58:03.649Z,10.38
2023-05-08T20:00:07.679Z,11.43
2023-05-08T20:02:10.490Z,10.55
2023-05-08T20:04:13.368Z,10.95
2023-05-08T20:06:16.221Z,9.77
2023-05-08T20:08:19.296Z,10.63
2023-05-08T20:10:24.023Z,10.32
2023-05-08T20:12:26.915Z,11.18
2023-05-08T20:14:29.687Z,12.10
2023-05-08T20:16:32.537Z,10.18
2023-05-08T20:18:35.616Z,11.30
2023-05-08T20:20:38.385Z,11.18
2023-05-08T20:22:41.109Z,10.30
2023-05-08T20:24:43.887Z,10.95
2023-05-08T20:26:48.235Z,12.20
2023-05-08T20:28:52.110Z,12.18
2023-05-08T20:30:54.867Z,12.15
2023-05-08T20:33:04.349Z,12.57
2023-05-08T20:35:07.969Z,11.93
2023-05-08T20:37:10.826Z,11.70
2023-05-08T20:39:13.836Z,11.23
2023-05-08T20:41:16.933Z,11.77
2023-05-08T20:43:21.109Z,12.30
2023-05-08T20:45:23.821Z,11.20
2023-05-08T20:47:26.569Z,11.45
2023-05-08T20:49:29.327Z,11.02
2023-05-08T20:51:32.579Z,12.07
2023-05-08T20:53:35.383Z,11.90
2023-05-08T20:55:38.123Z,12.18
2023-05-08T20:57:40.888Z,11.88
2023-05-08T20:59:47.137Z,12.60
2023-05-08T21:01:50.261Z,11.65
2023-05-08T21:03:53.197Z,13.13
2023-05-08T21:05:56.295Z,12.98
2023-05-08T21:08:02.122Z,12.45
2023-05-08T21:10:05.377Z,11.68
2023-05-08T21:12:08.423Z,12.50
2023-05-08T21:14:11.171Z,12.57
2023-05-08T21:16:15.398Z,12.55
2023-05-08T21:18:18.318Z,12.13
2023-05-08T21:20:21.370Z,12.02
2023-05-08T21:22:24.115Z,14.18
2023-05-08T21:24:26.963Z,13.68
2023-05-08T21:26:29.889Z,12.80
2023-05-08T21:28:32.717Z,12.23
2023-05-08T21:30:35.430Z,12.45
2023-05-08T21:32:39.699Z,12.65
2023-05-08T21:34:42.582Z,12.07
2023-05-08T21:36:45.344Z,12.55
2023-05-08T21:38:48.259Z,11.48
2023-05-08T21:40:51.108Z,11.80
2023-05-08T21:42:53.964Z,12.25
2023-05-08T21:44:56.947Z,11.23
2023-05-08T21:46:59.844Z,11.95
2023-05-08T21:49:04.336Z,12.95
2023-05-08T21:51:07.945Z,13.05
2023-05-08T21:53:10.884Z,11.98
2023-05-08T21:55:13.983Z,12.63
2023-05-08T21:57:17.005Z,12.55
2023-05-08T21:59:19.718Z,14.10
2023-05-08T22:01:22.477Z,12.07
2023-05-08T22:03:25.592Z,12.63
2023-05-08T22:05:29.855Z,12.98
2023-05-08T22:07:32.690Z,12.57
2023-05-08T22:09:35.739Z,12.13
2023-05-08T22:11:38.582Z,12.40
2023-05-08T22:13:41.520Z,12.88
2023-05-08T22:15:44.379Z,13.57
2023-05-08T22:17:47.563Z,13.90
2023-05-08T22:19:50.359Z,13.38
2023-05-08T22:21:54.536Z,12.95
2023-05-08T22:23:57.454Z,12.95
2023-05-08T22:26:00.185Z,13.50
2023-05-08T22:28:02.889Z,13.25
2023-05-08T22:30:06.718Z,12.32
2023-05-08T22:32:09.726Z,13.00
2023-05-08T22:34:12.808Z,12.52
2023-05-08T22:36:15.921Z,12.75
2023-05-08T22:38:20.214Z,13.18
2023-05-08T22:40:24.403Z,13.20
2023-05-08T22:42:27.529Z,13.75
2023-05-08T22:44:30.564Z,14.98
2023-05-08T22:46:34.227Z,13.02
2023-05-08T22:48:37.592Z,13.07
2023-05-08T22:50:40.576Z,12.52
2023-05-08T22:52:44.156Z,13.07
2023-05-08T22:54:48.401Z,12.88
2023-05-08T22:56:51.318Z,12.52
2023-05-08T22:58:55.131Z,12.43
2023-05-08T23:00:59.447Z,12.30
2023-05-08T23:03:02.259Z,11.68
2023-05-08T23:05:06.708Z,12.43
2023-05-08T23:07:09.389Z,11.93
2023-05-08T23:09:12.801Z,13.07
2023-05-08T23:11:17.240Z,12.95
2023-05-08T23:13:20.219Z,12.10
2023-05-08T23:15:23.194Z,12.70
2023-05-08T23:17:26.376Z,13.48
2023-05-08T23:19:29.211Z,14.32
2023-05-08T23:21:32.205Z,14.07
2023-05-08T23:23:35.506Z,13.25
2023-05-08T23:25:38.491Z,14.10
2023-05-08T23:27:42.905Z,14.70
2023-05-08T23:29:46.006Z,14.98
2023-05-08T23:31:48.998Z,15.05
2023-05-08T23:33:52.469Z,14.32
2023-05-08T23:35:56.812Z,14.82
2023-05-08T23:37:59.552Z,13.95
2023-05-08T23:40:02.298Z,14.38
2023-05-08T23:42:05.296Z,14.80
2023-05-08T23:44:10.073Z,16.20
2023-05-08T23:46:13.720Z,14.10
2023-05-08T23:48:17.180Z,14.55
2023-05-08T23:50:19.954Z,15.40
2023-05-08T23:52:23.132Z,14.95
2023-05-08T23:54:26.090Z,16.40
2023-05-08T23:56:28.762Z,16.08
2023-05-08T23:58:31.579Z,15.25
